Time;durP1;ratioP1;P1;durP2;ratioP2;P2;SDS_P1;SDS_P2;PMS_P1;PMS_P2;Temp;Humidity;BMP_temperature;BMP_pressure;BME280_temperature;BME280_humidity;BME280_pressure;Samples;Min_cycle;Max_cycle;Signal;HPM_P1;HPM_P2
2022/06/10 00:01:14;;;;;;;5.28;3.30;;;;;;;14.07;78.23;95134.08;1823819;78;20983;-64
2022/06/10 00:03:41;;;;;;;4.53;2.92;;;;;;;14.06;77.59;95132.38;1823376;78;21476;-65
2022/06/10 00:06:11;;;;;;;5.08;3.45;;;;;;;14.13;77.72;95135.63;1823774;78;20966;-65
2022/06/10 00:08:42;;;;;;;5.75;3.10;;;;;;;14.19;77.33;95134.06;1823633;78;20986;-65
2022/06/10 00:11:11;;;;;;;5.72;3.15;;;;;;;14.10;77.10;95133.09;1823785;79;21070;-65
2022/06/10 00:13:42;;;;;;;5.05;2.77;;;;;;;13.98;77.77;95137.09;1823643;78;20963;-65
2022/06/10 00:16:09;;;;;;;6.83;3.00;;;;;;;13.96;77.82;95128.35;1823655;78;21453;-65
2022/06/10 00:18:37;;;;;;;7.53;3.85;;;;;;;13.88;78.16;95133.53;1823483;78;21027;-64
2022/06/10 00:21:07;;;;;;;8.13;3.50;;;;;;;13.84;78.10;95133.66;1823728;78;21429;-64
2022/06/10 00:23:34;;;;;;;7.20;3.17;;;;;;;13.70;78.25;95135.11;1823371;79;21461;-65
2022/06/10 00:26:01;;;;;;;4.97;3.42;;;;;;;13.63;79.28;95128.73;1823367;78;20979;-65
2022/06/10 00:28:28;;;;;;;4.03;3.45;;;;;;;13.62;79.36;95142.03;1823810;78;21476;-65
2022/06/10 00:30:55;;;;;;;6.30;3.20;;;;;;;13.65;79.15;95128.66;1823768;78;20959;-65
2022/06/10 00:33:22;;;;;;;6.67;3.40;;;;;;;13.69;78.45;95131.60;1823683;78;21065;-65
2022/06/10 00:35:49;;;;;;;4.58;3.45;;;;;;;13.61;78.65;95131.03;1823692;78;21034;-65
2022/06/10 00:38:17;;;;;;;6.92;3.10;;;;;;;13.49;79.04;95128.38;1823537;78;21002;-64
2022/06/10 00:40:52;;;;;;;4.85;3.30;;;;;;;13.40;79.64;95135.33;1823445;78;21006;-64
2022/06/10 00:43:24;;;;;;;4.75;3.62;;;;;;;13.35;79.26;95132.84;1823458;78;21054;-64
2022/06/10 00:46:22;;;;;;;3.77;3.20;;;;;;;13.32;78.93;95128.99;1823594;78;21496;-64
2022/06/10 00:49:09;;;;;;;6.40;3.33;;;;;;;13.30;79.68;95128.64;1810715;79;21007;-65
2022/06/10 00:51:49;;;;;;;6.97;4.72;;;;;;;13.20;80.45;95132.05;1823720;78;21015;-65
2022/06/10 00:54:35;;;;;;;7.00;3.27;;;;;;;13.21;79.71;95132.01;1823766;78;21046;-65
2022/06/10 00:57:13;;;;;;;7.22;3.47;;;;;;;13.28;79.99;95129.16;1823428;78;21034;-65
2022/06/10 00:59:57;;;;;;;6.45;3.70;;;;;;;13.25;79.83;95134.54;1823116;78;21094;-64
2022/06/10 01:02:30;;;;;;;4.75;3.30;;;;;;;13.25;80.29;95128.77;1823407;79;20971;-64
2022/06/10 01:04:59;;;;;;;8.30;3.35;;;;;;;13.27;79.76;95129.63;1823784;78;21497;-64
2022/06/10 01:07:31;;;;;;;7.65;3.40;;;;;;;13.25;80.23;95134.07;1823447;78;20994;-65
2022/06/10 01:10:02;;;;;;;4.08;3.20;;;;;;;13.19;79.55;95128.55;1822872;79;21477;-65
2022/06/10 01:13:07;;;;;;;3.52;3.00;;;;;;;13.20;79.88;95133.38;1823590;78;21461;-65
2022/06/10 01:15:54;;;;;;;7.85;3.30;;;;;;;13.25;79.73;95135.86;1823300;79;20987;-64
2022/06/10 01:18:48;;;;;;;5.05;3.12;;;;;;;13.24;79.58;95131.03;1823615;79;20979;-65
2022/06/10 01:21:59;;;;;;;4.83;3.47;;;;;;;13.16;80.21;95139.25;1758448;81;21018;-65
2022/06/10 01:24:58;;;;;;;5.70;3.30;;;;;;;13.16;80.38;95133.95;1759013;81;21010;-65
2022/06/10 01:27:48;;;;;;;5.30;2.92;;;;;;;13.12;80.34;95139.42;1817322;79;21003;-65
2022/06/10 01:30:46;;;;;;;5.05;3.10;;;;;;;13.12;80.95;95139.42;1823682;79;21377;-65
2022/06/10 01:33:21;;;;;;;4.70;3.33;;;;;;;13.16;80.45;95145.02;1823608;78;20999;-65
2022/06/10 01:36:08;;;;;;;3.70;2.80;;;;;;;13.11;79.83;95141.20;1822784;79;20955;-65
2022/06/10 01:38:52;;;;;;;3.90;3.33;;;;;;;13.15;80.17;95141.52;1822102;78;21500;-65
2022/06/10 01:41:24;;;;;;;5.15;2.83;;;;;;;13.18;79.63;95144.05;1818129;79;21003;-64
2022/06/10 01:44:23;;;;;;;4.92;2.90;;;;;;;13.14;79.13;95144.20;1759354;79;21015;-65
2022/06/10 01:47:03;;;;;;;4.72;3.27;;;;;;;13.16;79.98;95147.20;1820609;79;21002;-64
2022/06/10 01:49:35;;;;;;;3.80;3.27;;;;;;;13.15;79.28;95156.52;1820334;78;21430;-65
2022/06/10 01:52:41;;;;;;;5.95;2.60;;;;;;;13.12;80.19;95168.55;1820734;79;20995;-65
2022/06/10 01:55:21;;;;;;;4.30;2.87;;;;;;;13.11;79.72;95177.44;1820328;79;21003;-65
2022/06/10 01:58:15;;;;;;;5.50;3.20;;;;;;;13.07;79.65;95175.80;1806505;79;21026;-64
2022/06/10 02:00:46;;;;;;;3.98;2.77;;;;;;;13.03;79.96;95186.08;1820665;79;20999;-64
2022/06/10 02:03:24;;;;;;;8.23;3.00;;;;;;;13.01;79.48;95184.83;1820322;78;21480;-64
2022/06/10 02:05:56;;;;;;;4.75;3.45;;;;;;;12.99;79.79;95186.19;1820593;78;21003;-65
2022/06/10 02:08:31;;;;;;;5.40;3.30;;;;;;;13.00;79.59;95191.02;1820449;78;21466;-65
2022/06/10 02:11:15;;;;;;;4.28;3.33;;;;;;;12.92;79.55;95191.75;1819309;79;21011;-65
2022/06/10 02:13:52;;;;;;;3.47;2.87;;;;;;;12.86;79.64;95199.92;1820790;78;20975;-65
2022/06/10 02:16:26;;;;;;;4.47;2.85;;;;;;;12.87;79.30;95199.84;1820465;79;21537;-65
2022/06/10 02:19:13;;;;;;;6.53;3.27;;;;;;;12.77;78.95;95204.61;1820473;78;20998;-65
2022/06/10 02:21:57;;;;;;;3.33;3.02;;;;;;;12.71;80.22;95204.80;1809062;79;21541;-65
2022/06/10 02:24:46;;;;;;;3.65;2.65;;;;;;;12.63;81.10;95209.48;1814142;79;20991;-65
2022/06/10 02:27:18;;;;;;;3.90;3.20;;;;;;;12.56;80.08;95207.95;1820681;78;21042;-65
2022/06/10 02:29:53;;;;;;;4.17;3.40;;;;;;;12.48;80.74;95209.98;1819954;78;20995;-65
2022/06/10 02:32:20;;;;;;;4.60;3.00;;;;;;;12.49;81.13;95209.92;1820456;78;21034;-65
2022/06/10 02:34:47;;;;;;;3.70;3.02;;;;;;;12.48;81.46;95219.25;1820511;78;21030;-65
2022/06/10 02:37:38;;;;;;;3.80;2.70;;;;;;;12.45;81.10;95216.70;1820104;79;21066;-65
2022/06/10 02:40:27;;;;;;;3.80;2.75;;;;;;;12.44;82.12;95220.25;1823117;79;21006;-65
2022/06/10 02:42:59;;;;;;;4.08;2.83;;;;;;;12.46;82.46;95221.94;1823533;79;20979;-64
2022/06/10 02:45:37;;;;;;;5.42;3.08;;;;;;;12.52;81.67;95220.43;1823292;79;21006;-65
2022/06/10 02:48:12;;;;;;;8.05;3.15;;;;;;;12.62;81.09;95227.59;1823417;79;21003;-65
2022/06/10 02:50:39;;;;;;;6.08;2.90;;;;;;;12.66;80.74;95233.67;1823036;79;20995;-65
2022/06/10 02:53:06;;;;;;;4.85;2.90;;;;;;;12.60;80.70;95235.17;1823409;79;21317;-65
2022/06/10 02:55:34;;;;;;;6.08;2.80;;;;;;;12.54;81.19;95241.06;1823598;79;20939;-65
2022/06/10 03:01:16;;;;;;;2.95;2.67;;;;;;;12.54;81.02;95243.72;1823662;78;21405;-65
2022/06/10 03:04:10;;;;;;;9.05;3.22;;;;;;;12.51;80.46;95237.67;1823822;78;21472;-65
2022/06/10 03:07:02;;;;;;;2.92;2.72;;;;;;;12.51;81.40;95246.47;1823293;79;20959;-65
2022/06/10 03:09:46;;;;;;;4.28;2.60;;;;;;;12.51;80.76;95243.82;1823922;78;21002;-65
2022/06/10 03:12:30;;;;;;;4.05;2.67;;;;;;;12.54;81.76;95250.33;1823088;79;21006;-65
2022/06/10 03:15:08;;;;;;;3.98;2.92;;;;;;;12.58;81.77;95249.80;1823210;79;20959;-65
2022/06/10 03:17:51;;;;;;;4.75;2.90;;;;;;;12.58;81.80;95250.27;1823532;78;21018;-65
2022/06/10 03:20:30;;;;;;;4.67;2.75;;;;;;;12.59;81.71;95253.30;1823384;78;20991;-64
2022/06/10 03:23:22;;;;;;;2.85;2.60;;;;;;;12.60;80.81;95259.88;1795944;79;21512;-65
2022/06/10 03:25:57;;;;;;;13.83;4.03;;;;;;;12.58;81.54;95263.49;1822999;79;21034;-65
2022/06/10 03:28:32;;;;;;;4.40;2.55;;;;;;;12.66;81.13;95264.11;1821894;79;21489;-65
2022/06/10 03:31:19;;;;;;;3.52;3.05;;;;;;;12.67;81.28;95273.77;1823550;78;20975;-65
2022/06/10 03:33:59;;;;;;;91.90;77.00;;;;;;;12.70;81.70;95269.26;1823137;79;21046;-65
2022/06/10 03:36:31;;;;;;;10.05;8.30;;;;;;;12.73;81.58;95273.13;1823630;78;21457;-65
2022/06/10 03:38:58;;;;;;;9.35;6.83;;;;;;;12.76;82.04;95268.19;1823608;79;21038;-65
2022/06/10 03:41:30;;;;;;;5.70;4.60;;;;;;;12.79;81.66;95268.08;1822963;79;21029;-65
2022/06/10 03:44:01;;;;;;;4.25;3.83;;;;;;;12.90;81.35;95276.56;1823911;78;21050;-65
2022/06/10 03:46:31;;;;;;;5.00;3.33;;;;;;;12.97;81.59;95272.77;1823578;78;21038;-65
2022/06/10 03:49:05;;;;;;;5.17;3.80;;;;;;;12.98;81.17;95273.19;1823460;78;20975;-65
2022/06/10 03:51:32;;;;;;;5.10;3.50;;;;;;;13.08;81.24;95284.35;1823499;79;21046;-65
2022/06/10 03:53:59;;;;;;;4.35;3.00;;;;;;;13.15;80.96;95279.69;1823293;78;20979;-65
2022/06/10 03:56:26;;;;;;;7.42;3.55;;;;;;;13.18;80.15;95275.17;1823212;78;21015;-65
2022/06/10 03:58:53;;;;;;;3.47;3.15;;;;;;;13.18;79.92;95276.97;1823383;79;21042;-65
2022/06/10 04:01:20;;;;;;;6.17;3.25;;;;;;;13.24;80.00;95283.83;1823460;78;20963;-65
2022/06/10 04:03:46;;;;;;;4.45;4.00;;;;;;;13.23;80.03;95282.97;1823778;78;20966;-65
2022/06/10 04:06:18;;;;;;;5.20;3.60;;;;;;;13.14;80.41;95286.78;1823643;79;20987;-65
2022/06/10 04:08:45;;;;;;;5.30;4.65;;;;;;;13.15;80.49;95287.20;1823357;78;21018;-65
2022/06/10 04:11:11;;;;;;;6.58;4.58;;;;;;;13.17;80.04;95294.62;1823026;78;21014;-65
2022/06/10 04:13:39;;;;;;;4.92;4.05;;;;;;;13.16;80.05;95288.92;1823283;78;21102;-65
2022/06/10 04:16:06;;;;;;;4.30;3.58;;;;;;;13.16;80.15;95292.05;1823591;78;20997;-65
2022/06/10 04:18:33;;;;;;;9.73;5.67;;;;;;;13.12;80.62;95299.67;1823366;78;20994;-65
2022/06/10 04:21:00;;;;;;;9.23;5.67;;;;;;;13.06;81.03;95294.12;1823741;78;21453;-65
2022/06/10 04:23:27;;;;;;;6.83;4.92;;;;;;;13.06;81.59;95288.83;1823196;79;21086;-65
2022/06/10 04:25:53;;;;;;;9.78;5.20;;;;;;;13.06;81.15;95293.27;1823679;78;20991;-65
2022/06/10 04:28:20;;;;;;;6.30;4.72;;;;;;;13.07;81.96;95291.88;1823615;78;21001;-65
2022/06/10 04:30:50;;;;;;;5.47;4.95;;;;;;;13.15;81.87;95279.27;1823684;78;20970;-65
2022/06/10 04:33:17;;;;;;;6.55;3.83;;;;;;;13.23;81.90;95282.97;1823776;78;21037;-65
2022/06/10 04:35:46;;;;;;;4.72;3.75;;;;;;;13.29;81.34;95295.17;1823907;78;20946;-65
2022/06/10 04:38:16;;;;;;;6.95;5.42;;;;;;;13.28;81.20;95299.61;1823589;78;21481;-65
2022/06/10 04:40:43;;;;;;;9.35;6.10;;;;;;;13.24;81.51;95288.67;1823456;78;21512;-65
2022/06/10 04:43:10;;;;;;;18.10;9.35;;;;;;;13.25;81.79;95294.36;1823812;78;20999;-65
2022/06/10 04:45:44;;;;;;;12.30;6.80;;;;;;;13.35;81.99;95296.27;1823381;79;21023;-65
2022/06/10 04:48:12;;;;;;;6.37;5.33;;;;;;;13.50;82.33;95297.07;1823626;78;21500;-65
2022/06/10 04:50:41;;;;;;;9.85;7.08;;;;;;;13.70;82.03;95292.39;1823507;79;21011;-65
2022/06/10 04:53:08;;;;;;;9.53;5.97;;;;;;;13.87;81.76;95297.57;1823566;78;21034;-65
2022/06/10 04:55:35;;;;;;;4.78;3.75;;;;;;;14.04;81.46;95296.03;1823488;78;20979;-65
2022/06/10 04:58:03;;;;;;;7.00;3.70;;;;;;;14.17;80.50;95285.83;1823445;78;20982;-65
2022/06/10 05:00:35;;;;;;;6.97;3.60;;;;;;;14.30;80.28;95288.88;1824054;78;21014;-65
2022/06/10 05:03:02;;;;;;;5.20;3.87;;;;;;;14.52;80.35;95292.91;1823837;79;21453;-65
2022/06/10 05:05:30;;;;;;;5.20;3.62;;;;;;;14.73;79.03;95294.34;1823412;79;20999;-65
2022/06/10 05:07:58;;;;;;;5.95;3.45;;;;;;;14.89;78.88;95305.64;1823564;78;20995;-65
2022/06/10 05:10:25;;;;;;;4.37;3.10;;;;;;;15.07;78.45;95291.21;1823320;79;20991;-65
2022/06/10 05:12:52;;;;;;;4.35;3.67;;;;;;;15.20;78.36;95283.59;1823389;78;20996;-65
2022/06/10 05:15:20;;;;;;;5.75;3.92;;;;;;;15.40;78.71;95294.72;1823675;78;20999;-65
2022/06/10 05:17:50;;;;;;;5.92;4.30;;;;;;;15.51;77.30;95293.31;1796135;79;21047;-65
2022/06/10 05:20:21;;;;;;;6.55;3.92;;;;;;;15.66;77.93;95294.93;1823367;78;21022;-65
2022/06/10 05:22:49;;;;;;;4.80;4.00;;;;;;;15.79;77.88;95304.13;1823596;78;21002;-65
2022/06/10 05:25:16;;;;;;;5.80;4.60;;;;;;;15.97;77.87;95297.13;1823587;78;21034;-65
2022/06/10 05:27:44;;;;;;;5.13;4.63;;;;;;;16.01;76.75;95296.07;1823382;79;21026;-65
2022/06/10 05:30:19;;;;;;;10.95;4.60;;;;;;;16.09;77.01;95298.39;1823682;78;20939;-65
2022/06/10 05:32:46;;;;;;;5.08;3.98;;;;;;;16.22;76.77;95302.22;1822983;78;21030;-65
2022/06/10 05:35:14;;;;;;;8.08;4.05;;;;;;;16.33;76.34;95303.05;1823623;78;21054;-65
2022/06/10 05:37:41;;;;;;;4.55;3.65;;;;;;;16.40;75.20;95305.83;1823843;78;20998;-65
2022/06/10 05:40:11;;;;;;;5.90;3.47;;;;;;;16.46;75.23;95308.70;1823063;78;21014;-65
2022/06/10 05:42:38;;;;;;;6.12;3.62;;;;;;;16.43;75.05;95302.58;1823551;78;21007;-65
2022/06/10 05:45:07;;;;;;;7.25;4.72;;;;;;;16.45;75.55;95306.48;1823357;79;21010;-65
2022/06/10 05:47:36;;;;;;;4.67;3.98;;;;;;;16.43;75.79;95302.58;1823515;78;21002;-65
2022/06/10 05:50:13;;;;;;;4.78;3.62;;;;;;;16.42;75.92;95315.95;1823572;78;21027;-65
2022/06/10 05:52:41;;;;;;;6.58;3.67;;;;;;;16.35;75.90;95311.36;1823387;78;21501;-65
2022/06/10 05:55:11;;;;;;;5.05;3.60;;;;;;;16.38;75.98;95308.59;1823059;79;20971;-65
2022/06/10 05:57:39;;;;;;;4.58;3.30;;;;;;;16.42;75.45;95307.96;1823398;78;21555;-65
2022/06/10 06:00:17;;;;;;;8.83;3.58;;;;;;;16.47;75.74;95317.94;1823250;79;21021;-65
2022/06/10 06:02:44;;;;;;;6.45;3.98;;;;;;;16.51;75.40;95315.54;1823578;78;21030;-65
2022/06/10 06:05:11;;;;;;;4.78;4.00;;;;;;;16.54;75.71;95314.53;1823646;78;20966;-65
2022/06/10 06:07:41;;;;;;;4.97;3.55;;;;;;;16.63;76.18;95316.30;1823315;78;21035;-64
2022/06/10 06:10:14;;;;;;;4.30;3.90;;;;;;;16.70;76.96;95320.00;1782436;79;20975;-65
2022/06/10 06:12:42;;;;;;;4.90;4.22;;;;;;;16.85;76.39;95323.30;1823489;79;21050;-64
2022/06/10 06:15:10;;;;;;;4.35;3.35;;;;;;;16.85;76.39;95323.30;1823051;78;21078;-65
2022/06/10 06:17:37;;;;;;;5.20;3.72;;;;;;;16.96;76.17;95322.34;1823732;78;21484;-65
2022/06/10 06:20:06;;;;;;;8.40;3.83;;;;;;;17.11;75.46;95326.07;1823659;78;20995;-65
2022/06/10 06:22:33;;;;;;;4.22;3.27;;;;;;;17.40;74.69;95323.77;1823382;78;21480;-65
2022/06/10 06:25:00;;;;;;;8.90;3.60;;;;;;;17.40;74.69;95323.77;1823271;78;21071;-65
2022/06/10 06:27:27;;;;;;;6.00;3.45;;;;;;;17.61;73.22;95329.81;1823458;79;20998;-65
2022/06/10 06:29:53;;;;;;;6.27;3.27;;;;;;;17.61;73.22;95329.81;1823455;78;21473;-65
2022/06/10 06:32:20;;;;;;;4.40;3.37;;;;;;;17.76;73.98;95326.84;1823741;78;20963;-65
2022/06/10 06:34:47;;;;;;;3.95;3.55;;;;;;;17.94;74.05;95326.81;1823185;79;21070;-65
2022/06/10 06:37:15;;;;;;;4.22;3.27;;;;;;;18.09;73.77;95322.48;1823560;78;20970;-65
2022/06/10 06:39:42;;;;;;;4.78;3.10;;;;;;;18.26;73.74;95318.05;1823883;79;21406;-65
2022/06/10 06:42:12;;;;;;;3.62;3.30;;;;;;;18.39;72.89;95313.77;1823187;78;20963;-65
2022/06/10 06:44:40;;;;;;;3.62;3.30;;;;;;;18.49;72.63;95314.13;1790610;79;21564;-65
2022/06/10 06:47:12;;;;;;;5.08;2.92;;;;;;;18.60;72.23;95324.64;1823533;79;20967;-65
2022/06/10 06:49:39;;;;;;;4.80;3.25;;;;;;;18.53;70.75;95319.71;1823591;78;20995;-65
2022/06/10 06:52:08;;;;;;;5.12;3.75;;;;;;;18.62;71.92;95318.33;1823783;78;21037;-65
2022/06/10 06:54:38;;;;;;;5.33;4.08;;;;;;;18.78;72.63;95316.59;1823489;78;21465;-65
2022/06/10 06:57:06;;;;;;;7.35;3.72;;;;;;;18.99;72.30;95315.86;1823340;79;21465;-65
2022/06/10 06:59:34;;;;;;;10.53;3.60;;;;;;;19.18;71.61;95315.22;1823640;79;21495;-65
2022/06/10 07:02:01;;;;;;;8.35;3.42;;;;;;;19.31;71.36;95315.38;1823788;78;20979;-65
2022/06/10 07:04:28;;;;;;;6.47;3.95;;;;;;;19.55;71.67;95314.90;1823115;79;21042;-65
2022/06/10 07:06:54;;;;;;;7.08;3.70;;;;;;;19.75;70.77;95315.95;1823321;78;21114;-65
2022/06/10 07:09:21;;;;;;;6.72;3.95;;;;;;;19.99;70.02;95320.34;1823549;79;21030;-65
2022/06/10 07:11:48;;;;;;;6.00;3.50;;;;;;;20.21;69.09;95316.34;1823267;78;20960;-65
2022/06/10 07:14:15;;;;;;;5.40;3.60;;;;;;;20.45;67.00;95315.33;1823572;78;20948;-65
2022/06/10 07:16:43;;;;;;;5.62;3.58;;;;;;;20.56;65.62;95318.22;1823475;79;21026;-65
2022/06/10 07:19:11;;;;;;;3.27;2.98;;;;;;;20.66;66.14;95313.16;1823553;78;21037;-65
2022/06/10 07:21:37;;;;;;;8.40;3.52;;;;;;;20.73;63.96;95315.34;1823475;78;21492;-65
2022/06/10 07:24:06;;;;;;;5.22;3.58;;;;;;;20.80;65.03;95311.81;1823612;78;21409;-65
2022/06/10 07:26:33;;;;;;;4.05;3.25;;;;;;;20.88;65.39;95319.37;1823170;79;20994;-66
2022/06/10 07:29:00;;;;;;;5.78;3.60;;;;;;;20.88;63.21;95318.88;1823595;78;21010;-65
2022/06/10 07:31:26;;;;;;;8.05;3.58;;;;;;;20.87;62.36;95317.66;1823623;79;21018;-65
2022/06/10 07:33:53;;;;;;;5.33;3.35;;;;;;;20.88;62.42;95319.37;1823607;78;20962;-65
2022/06/10 07:36:20;;;;;;;4.08;2.55;;;;;;;20.96;62.34;95322.41;1823558;78;21026;-65
2022/06/10 07:38:47;;;;;;;3.87;2.90;;;;;;;20.99;58.27;95324.92;1822907;79;21570;-65
2022/06/10 07:44:00;;;;;;;5.25;3.20;;;;;;;21.24;61.03;95324.66;1820614;78;20984;-65
2022/06/10 07:46:27;;;;;;;5.53;3.50;;;;;;;21.34;57.67;95332.49;1820233;78;21014;-65
2022/06/10 07:48:54;;;;;;;3.52;2.90;;;;;;;21.44;57.67;95330.96;1820215;78;21044;-65
2022/06/10 07:51:21;;;;;;;7.30;3.60;;;;;;;21.58;59.24;95334.09;1820214;78;21011;-65
2022/06/10 07:53:49;;;;;;;9.05;4.40;;;;;;;21.73;59.54;95334.90;1790858;79;21504;-65
2022/06/10 07:56:18;;;;;;;5.37;2.87;;;;;;;21.83;57.45;95341.38;1820379;78;21508;-65
2022/06/10 07:58:45;;;;;;;5.03;3.05;;;;;;;21.90;57.23;95337.77;1820319;78;21022;-65
2022/06/10 08:01:12;;;;;;;5.35;3.30;;;;;;;21.95;58.83;95335.18;1820623;78;21022;-65
2022/06/10 08:03:39;;;;;;;9.05;4.10;;;;;;;22.03;57.95;95336.00;1820553;78;21501;-65
2022/06/10 08:06:07;;;;;;;7.05;3.33;;;;;;;22.22;58.11;95346.38;1820670;78;21014;-65
2022/06/10 08:08:34;;;;;;;6.45;2.80;;;;;;;22.46;57.60;95340.66;1820307;78;21013;-66
2022/06/10 08:11:01;;;;;;;5.20;2.92;;;;;;;22.69;57.05;95343.56;1820622;78;20991;-66
2022/06/10 08:13:29;;;;;;;6.78;3.15;;;;;;;22.80;54.00;95338.76;1820200;78;20979;-65
2022/06/10 08:15:56;;;;;;;3.37;2.47;;;;;;;22.89;53.80;95338.11;1820455;78;20998;-65
2022/06/10 08:18:23;;;;;;;5.35;2.98;;;;;;;23.10;53.77;95337.08;1820084;79;21613;-65
2022/06/10 08:23:37;;;;;;;12.55;3.50;;;;;;;23.68;54.99;95330.09;1820230;79;21078;-65
2022/06/10 08:26:07;;;;;;;6.83;3.10;;;;;;;23.96;54.81;95332.09;1820414;78;20964;-65
2022/06/10 08:28:36;;;;;;;4.35;3.05;;;;;;;24.22;54.38;95339.56;1820212;79;21003;-65
2022/06/10 08:31:05;;;;;;;6.42;2.45;;;;;;;24.30;53.61;95336.27;1820438;78;20997;-65
2022/06/10 08:33:32;;;;;;;4.62;2.52;;;;;;;24.33;51.98;95340.08;1820521;78;21524;-65
2022/06/10 08:36:00;;;;;;;3.22;2.50;;;;;;;24.51;49.97;95339.16;1776939;79;20975;-65
2022/06/10 08:38:28;;;;;;;5.15;2.52;;;;;;;24.48;49.36;95334.88;1820335;78;20999;-66
2022/06/10 08:41:03;;;;;;;4.47;2.92;;;;;;;24.28;49.74;95342.27;1820941;78;20979;-65
2022/06/10 08:43:57;;;;;;;6.35;2.40;;;;;;;24.19;49.49;95344.70;1819516;79;21042;-65
2022/06/10 08:46:32;;;;;;;4.95;2.40;;;;;;;24.17;49.37;95350.69;1823671;79;20951;-65
2022/06/10 08:49:33;;;;;;;5.60;2.20;;;;;;;24.04;48.43;95344.98;1823637;79;21035;-65
2022/06/10 08:52:38;;;;;;;2.70;2.12;;;;;;;23.98;48.52;95341.78;1823835;79;20975;-65
2022/06/10 08:55:40;;;;;;;4.58;2.00;;;;;;;24.01;47.42;95343.87;1804828;79;20991;-65
2022/06/10 08:58:18;;;;;;;3.00;2.10;;;;;;;24.12;47.99;95351.53;1823614;78;21050;-66
2022/06/10 09:00:47;;;;;;;7.67;2.22;;;;;;;24.24;49.40;95353.78;1823570;78;21015;-65
2022/06/10 09:03:19;;;;;;;2.60;1.85;;;;;;;24.29;44.27;95349.36;1823377;78;21449;-66
2022/06/10 09:05:59;;;;;;;3.22;2.00;;;;;;;24.36;46.19;95350.13;1823252;79;20982;-65
2022/06/10 09:08:40;;;;;;;3.25;2.30;;;;;;;24.46;44.37;95344.06;1823745;78;21018;-65
2022/06/10 09:11:27;;;;;;;4.37;2.15;;;;;;;24.59;43.67;95346.16;1823566;78;20979;-65
2022/06/10 09:14:19;;;;;;;5.35;2.00;;;;;;;24.79;43.76;95349.50;1823426;78;21047;-65
2022/06/10 09:16:57;;;;;;;6.07;2.27;;;;;;;24.94;44.55;95350.13;1823859;79;21011;-66
2022/06/10 09:19:57;;;;;;;7.03;2.25;;;;;;;25.16;47.31;95352.47;1823951;78;21011;-65
2022/06/10 09:22:53;;;;;;;3.52;2.10;;;;;;;25.47;45.81;95357.13;1823972;78;21042;-65
2022/06/10 09:25:40;;;;;;;2.85;2.20;;;;;;;25.86;45.09;95352.67;1823588;79;21033;-66
2022/06/10 09:28:07;;;;;;;4.30;2.05;;;;;;;26.08;43.81;95348.54;1823560;78;21010;-65
2022/06/10 09:31:00;;;;;;;3.30;1.80;;;;;;;26.29;42.10;95345.85;1823582;78;21445;-65
2022/06/10 09:33:40;;;;;;;2.95;1.92;;;;;;;26.52;42.83;95340.32;1823532;78;21049;-65
2022/06/10 09:36:15;;;;;;;5.53;1.80;;;;;;;26.81;42.87;95335.11;1822460;79;21038;-65
2022/06/10 09:39:02;;;;;;;2.08;1.70;;;;;;;27.03;42.13;95346.27;1822425;79;21026;-65
2022/06/10 09:41:43;;;;;;;3.22;1.95;;;;;;;27.03;40.05;95342.71;1820161;78;21050;-65
2022/06/10 09:44:21;;;;;;;2.70;1.90;;;;;;;27.22;40.08;95347.41;1820447;78;20991;-65
2022/06/10 09:47:14;;;;;;;3.05;1.90;;;;;;;27.41;40.04;95347.45;1820172;78;21014;-65
2022/06/10 09:50:04;;;;;;;6.50;1.82;;;;;;;27.50;37.30;95345.79;1805293;79;20999;-65
2022/06/10 09:52:45;;;;;;;2.02;1.80;;;;;;;27.67;39.38;95344.24;1820483;78;21024;-66
2022/06/10 09:55:29;;;;;;;2.42;1.75;;;;;;;27.78;38.78;95341.43;1816270;79;21054;-65
2022/06/10 09:58:16;;;;;;;2.70;2.08;;;;;;;27.97;38.13;95343.33;1820422;78;20999;-66
2022/06/10 10:00:56;;;;;;;4.03;2.33;;;;;;;28.10;38.52;95349.36;1820542;79;20979;-65
2022/06/10 10:03:45;;;;;;;5.97;2.00;;;;;;;28.07;37.27;95338.77;1820637;78;20955;-65
2022/06/10 10:06:38;;;;;;;2.65;2.17;;;;;;;28.10;36.95;95343.05;1819849;79;21019;-65
2022/06/10 10:09:42;;;;;;;3.02;1.87;;;;;;;28.07;36.02;95341.48;1785299;79;20987;-65
2022/06/10 10:12:20;;;;;;;2.20;2.00;;;;;;;28.00;36.38;95337.65;1820650;78;21003;-66
2022/06/10 10:15:13;;;;;;;2.45;1.98;;;;;;;27.94;37.04;95327.34;1820396;79;21027;-65
2022/06/10 10:18:06;;;;;;;4.70;2.27;;;;;;;28.02;36.53;95330.20;1820283;79;20968;-66
2022/06/10 10:21:08;;;;;;;2.55;2.33;;;;;;;28.17;36.19;95323.86;1819852;79;21015;-65
2022/06/10 10:23:49;;;;;;;5.62;2.60;;;;;;;28.37;37.36;95317.42;1820498;78;21449;-66
2022/06/10 10:26:35;;;;;;;7.47;2.72;;;;;;;28.47;35.82;95306.59;1820045;78;21010;-66
2022/06/10 10:29:16;;;;;;;2.87;2.10;;;;;;;28.53;36.10;95307.38;1784795;79;20986;-65
2022/06/10 10:31:57;;;;;;;3.60;2.50;;;;;;;28.64;36.33;95307.20;1820467;78;21481;-65
2022/06/10 10:34:29;;;;;;;4.45;2.45;;;;;;;28.73;35.77;95297.82;1819402;79;20987;-66
2022/06/10 10:37:03;;;;;;;4.55;2.50;;;;;;;28.87;36.12;95298.72;1820592;79;20979;-65
2022/06/10 10:39:34;;;;;;;2.65;2.40;;;;;;;29.00;34.78;95292.95;1820878;78;21421;-65
2022/06/10 10:42:15;;;;;;;2.90;2.25;;;;;;;29.00;35.25;95293.80;1820207;79;20979;-66
2022/06/10 10:44:52;;;;;;;2.25;2.05;;;;;;;29.15;36.02;95295.56;1820236;78;21038;-65
2022/06/10 10:47:25;;;;;;;6.65;2.40;;;;;;;29.31;35.85;95300.38;1820104;78;21122;-66
2022/06/10 10:50:01;;;;;;;3.15;2.60;;;;;;;29.44;35.60;95295.95;1820610;79;21480;-65
2022/06/10 10:52:35;;;;;;;3.45;2.58;;;;;;;29.44;34.02;95294.59;1820339;79;21007;-66
2022/06/10 10:55:20;;;;;;;3.90;2.65;;;;;;;29.59;35.36;95293.06;1820248;79;21003;-66
2022/06/10 10:58:08;;;;;;;6.72;2.75;;;;;;;29.74;34.72;95297.00;1819912;79;21014;-65
2022/06/10 11:00:44;;;;;;;3.80;2.37;;;;;;;29.80;33.89;95294.16;1810297;79;20979;-65
2022/06/10 11:03:33;;;;;;;5.70;2.92;;;;;;;29.84;33.27;95295.58;1820336;78;21466;-65
2022/06/10 11:06:05;;;;;;;4.08;2.90;;;;;;;29.92;34.37;95297.02;1820385;79;21045;-65
2022/06/10 11:08:36;;;;;;;5.00;2.80;;;;;;;30.04;33.32;95292.21;1820328;79;21015;-65
2022/06/10 11:11:21;;;;;;;4.67;2.90;;;;;;;30.19;34.60;95289.80;1820289;79;20987;-65
2022/06/10 11:14:05;;;;;;;4.33;2.95;;;;;;;30.28;33.04;95277.14;1819961;78;20971;-66
2022/06/10 11:16:40;;;;;;;4.15;2.30;;;;;;;30.31;33.93;95274.95;1820408;78;20986;-66
2022/06/10 11:19:15;;;;;;;6.97;2.75;;;;;;;30.37;33.62;95270.77;1820628;78;21011;-66
2022/06/10 11:22:12;;;;;;;5.85;2.83;;;;;;;30.34;31.60;95263.77;1820069;78;21007;-65
2022/06/10 11:24:45;;;;;;;5.70;3.22;;;;;;;30.09;29.87;95272.67;1820552;78;21034;-65
2022/06/10 11:27:35;;;;;;;;;;;;;;;30.25;32.34;95263.86;1823066;79;21533;-65
2022/06/10 11:30:16;;;;;;;6.53;3.22;;;;;;;30.43;32.47;95261.10;1820497;78;20419;-66
2022/06/10 11:33:05;;;;;;;3.42;2.85;;;;;;;30.32;31.35;95252.69;1820725;79;21047;-66
2022/06/10 11:35:41;;;;;;;6.62;3.30;;;;;;;30.41;31.66;95240.83;1820872;78;20987;-65
2022/06/10 11:38:19;;;;;;;7.03;3.45;;;;;;;30.38;30.80;95237.08;1820393;79;21014;-65
2022/06/10 11:40:53;;;;;;;5.97;3.35;;;;;;;30.47;32.51;95240.73;1817950;78;20986;-66
2022/06/10 11:43:31;;;;;;;5.25;2.98;;;;;;;30.71;31.39;95244.10;1823534;79;20999;-65
2022/06/10 11:46:36;;;;;;;4.42;2.83;;;;;;;30.88;32.53;95256.84;1823613;78;21030;-66
2022/06/10 11:49:26;;;;;;;5.08;3.20;;;;;;;31.08;31.47;95260.19;1823678;78;21003;-66
2022/06/10 11:52:05;;;;;;;6.00;3.10;;;;;;;31.10;29.07;95254.07;1823286;79;20963;-66
2022/06/10 11:54:39;;;;;;;4.37;3.22;;;;;;;30.69;29.14;95251.06;1822843;79;21026;-65
2022/06/10 12:00:41;;;;;;;5.85;3.67;;;;;;;29.73;32.43;95269.44;1823676;78;20990;-65
2022/06/10 12:03:54;;;;;;;4.80;3.35;;;;;;;29.12;31.79;95283.14;1823599;78;21493;-65
2022/06/10 12:06:44;;;;;;;8.50;3.33;;;;;;;28.47;33.30;95310.16;1727788;82;21004;-65
2022/06/10 12:20:05;;;;;;;6.75;2.55;;;;;;;22.72;50.94;95538.33;1860181;77;22921;-64
2022/06/10 12:22:34;;;;;;;6.80;2.75;;;;;;;21.83;52.43;95571.88;1824130;78;21015;-64
2022/06/10 12:25:01;;;;;;;3.70;2.33;;;;;;;21.14;55.01;95556.01;1832191;78;21000;-65
2022/06/10 12:27:38;;;;;;;5.95;2.83;;;;;;;20.31;58.91;95585.48;1832513;78;21023;-65
2022/06/10 12:30:14;;;;;;;5.67;2.35;;;;;;;19.78;60.35;95582.63;1832089;78;21107;-64
2022/06/10 12:32:57;;;;;;;6.80;2.55;;;;;;;19.03;62.26;95595.52;1828586;78;20996;-64
2022/06/10 12:35:34;;;;;;;6.22;3.10;;;;;;;18.54;65.20;95599.30;1832572;78;21012;-64